TimeCDT,TemperatureF,Dew PointF,Humidity,Sea Level PressureIn,VisibilityMPH,Wind Direction,Wind SpeedMPH,Gust SpeedMPH,PrecipitationIn,Events,Conditions,WindDirDegrees,DateUTC
12:51 AM,77.0,72.0,84,29.85,10.0,SW,5.8,-,N/A,,Clear,220,2013-09-25 05:51:00
1:51 AM,78.1,73.0,84,29.85,10.0,SSW,6.9,-,N/A,,Clear,210,2013-09-25 06:51:00
2:51 AM,77.0,72.0,84,29.84,10.0,SW,6.9,-,N/A,,Clear,230,2013-09-25 07:51:00
3:51 AM,75.9,71.1,85,29.84,10.0,WSW,6.9,-,N/A,,Clear,240,2013-09-25 08:51:00
4:51 AM,73.9,70.0,87,29.83,10.0,West,6.9,-,N/A,,Clear,260,2013-09-25 09:51:00
5:51 AM,73.9,69.1,85,29.84,10.0,WSW,3.5,-,N/A,,Clear,250,2013-09-25 10:51:00
6:51 AM,73.0,69.1,87,29.85,10.0,Calm,Calm,-,N/A,,Clear,0,2013-09-25 11:51:00
7:51 AM,73.0,69.1,87,29.86,10.0,Calm,Calm,-,N/A,,Clear,0,2013-09-25 12:51:00
8:51 AM,79.0,70.0,74,29.87,10.0,WNW,5.8,-,N/A,,Clear,300,2013-09-25 13:51:00
9:51 AM,82.9,69.1,63,29.88,10.0,West,6.9,-,N/A,,Clear,260,2013-09-25 14:51:00
10:51 AM,87.1,69.1,55,29.88,10.0,West,6.9,-,N/A,,Clear,270,2013-09-25 15:51:00
11:51 AM,90.0,68.0,48,29.88,10.0,South,3.5,-,N/A,,Clear,170,2013-09-25 16:51:00
12:51 PM,93.0,68.0,44,29.86,10.0,Calm,Calm,-,N/A,,Scattered Clouds,0,2013-09-25 17:51:00
1:51 PM,93.9,63.0,36,29.84,10.0,SSE,6.9,-,N/A,,Scattered Clouds,150,2013-09-25 18:51:00
2:51 PM,96.1,59.0,29,29.81,10.0,ENE,5.8,-,N/A,,Scattered Clouds,70,2013-09-25 19:51:00
3:51 PM,96.1,55.9,26,29.79,10.0,ESE,10.4,-,N/A,,Scattered Clouds,110,2013-09-25 20:51:00
4:51 PM,95.0,53.1,24,29.78,10.0,ESE,11.5,-,N/A,,Partly Cloudy,110,2013-09-25 21:51:00
5:51 PM,93.0,59.0,32,29.78,10.0,ESE,13.8,-,N/A,,Partly Cloudy,120,2013-09-25 22:51:00
6:51 PM,89.1,63.0,42,29.79,10.0,ESE,11.5,-,N/A,,Partly Cloudy,120,2013-09-25 23:51:00
7:51 PM,82.9,69.1,63,29.80,10.0,SE,8.1,-,N/A,,Partly Cloudy,130,2013-09-26 00:51:00
8:51 PM,80.1,71.1,74,29.81,10.0,SE,6.9,-,N/A,,Clear,130,2013-09-26 01:51:00
9:51 PM,79.0,71.1,77,29.82,10.0,SE,8.1,-,N/A,,Clear,130,2013-09-26 02:51:00
10:51 PM,77.0,71.1,82,29.83,10.0,SSE,5.8,-,N/A,,Clear,150,2013-09-26 03:51:00
11:51 PM,75.9,71.1,85,29.83,10.0,SSE,5.8,-,N/A,,Clear,160,2013-09-26 04:51:00